createdAt,value
2022-12-13T00:02:25.982Z,101094.03
2022-12-13T00:04:55.495Z,101099.25
2022-12-13T00:07:24.971Z,101087.75
2022-12-13T00:09:54.478Z,101080.59
2022-12-13T00:12:24.017Z,101079.34
2022-12-13T00:14:56.538Z,101075.56
2022-12-13T00:17:26.006Z,101064.78
2022-12-13T00:19:55.833Z,101067.66
2022-12-13T00:22:25.292Z,101059.75
2022-12-13T00:24:56.797Z,101062.25
2022-12-13T00:27:26.724Z,101055.13
2022-12-13T00:29:58.755Z,101050.78
2022-12-13T00:32:28.278Z,101045.72
2022-12-13T00:34:57.703Z,101044.09
2022-12-13T00:37:27.116Z,101040.31
2022-12-13T00:39:56.507Z,101032.97
2022-12-13T00:42:25.955Z,101032.09
2022-12-13T00:44:58.044Z,101021.44
2022-12-13T00:47:29.043Z,101019.50
2022-12-13T00:49:58.437Z,101019.88
2022-12-13T00:52:27.929Z,101014.50
2022-12-13T00:54:57.395Z,101005.31
2022-12-13T00:57:26.846Z,101000.22
2022-12-13T00:59:59.665Z,100990.84
2022-12-13T01:02:29.545Z,100996.59
2022-12-13T01:04:59.255Z,100990.72
2022-12-13T01:07:28.700Z,100986.91
2022-12-13T01:10:00.403Z,100979.06
2022-12-13T01:12:29.978Z,100975.81
2022-12-13T01:15:02.045Z,100983.09
2022-12-13T01:17:31.597Z,100984.00
2022-12-13T01:20:01.051Z,100988.81
2022-12-13T01:22:30.568Z,100990.59
2022-12-13T01:24:59.959Z,101000.22
2022-12-13T01:27:29.351Z,100999.53
2022-12-13T01:29:58.763Z,101003.00
2022-12-13T01:32:30.823Z,100999.59
2022-12-13T01:35:00.187Z,101005.75
2022-12-13T01:37:29.679Z,101007.22
2022-12-13T01:39:59.032Z,101006.78
2022-12-13T01:42:28.528Z,100999.75
2022-12-13T01:45:07.311Z,101008.56
2022-12-13T01:47:42.348Z,101018.00
2022-12-13T01:50:15.542Z,101018.47
2022-12-13T01:52:45.844Z,101010.56
2022-12-13T01:55:15.801Z,101014.38
2022-12-13T01:57:47.381Z,101004.19
2022-12-13T02:00:18.236Z,101007.94
2022-12-13T02:02:51.739Z,100993.03
2022-12-13T02:05:25.859Z,100992.88
2022-12-13T02:07:55.975Z,100993.25
2022-12-13T02:10:25.619Z,100983.78
2022-12-13T02:12:55.245Z,100975.25
2022-12-13T02:15:25.340Z,100977.22
2022-12-13T02:18:07.772Z,100975.63
2022-12-13T02:20:59.015Z,100981.03
2022-12-13T02:23:58.377Z,100974.72
2022-12-13T02:26:39.927Z,100961.75
2022-12-13T02:29:34.740Z,100960.41
2022-12-13T02:32:11.068Z,100958.88
2022-12-13T02:34:42.749Z,100947.31
2022-12-13T02:37:19.690Z,100950.56
2022-12-13T02:39:52.797Z,100943.75
2022-12-13T02:42:27.206Z,100945.38
2022-12-13T02:44:59.358Z,100954.03
2022-12-13T02:47:32.433Z,100954.94
2022-12-13T02:50:03.657Z,100958.50
2022-12-13T02:52:34.793Z,100961.28
2022-12-13T02:55:09.857Z,100972.69
2022-12-13T02:57:40.948Z,100973.25
2022-12-13T03:00:13.215Z,100986.78
2022-12-13T03:02:57.293Z,100983.78
2022-12-13T03:05:43.385Z,100993.16
2022-12-13T03:08:21.498Z,100989.53
2022-12-13T03:10:57.102Z,100994.44
2022-12-13T03:13:38.198Z,100989.22
2022-12-13T03:16:12.417Z,100993.34
2022-12-13T03:18:44.781Z,100998.03
2022-12-13T03:21:14.668Z,100995.97
2022-12-13T03:23:44.146Z,100994.50
2022-12-13T03:26:16.659Z,100994.22
2022-12-13T03:28:46.106Z,101006.06
2022-12-13T03:31:15.694Z,100993.53
2022-12-13T03:33:47.915Z,100970.44
2022-12-13T03:36:18.930Z,100949.91
2022-12-13T03:38:48.486Z,100926.69
2022-12-13T03:41:20.340Z,100919.56
2022-12-13T03:43:49.901Z,100911.63
2022-12-13T03:46:19.327Z,100938.00
2022-12-13T03:48:51.402Z,100948.13
2022-12-13T03:51:20.822Z,100979.16
2022-12-13T03:53:50.375Z,100998.63
2022-12-13T03:56:19.871Z,101008.47
2022-12-13T03:58:49.238Z,101012.31
2022-12-13T04:01:19.413Z,101017.59
2022-12-13T04:03:51.444Z,101022.44
2022-12-13T04:06:22.725Z,101013.91
2022-12-13T04:08:53.343Z,101022.69
2022-12-13T04:11:35.502Z,101024.72
2022-12-13T04:14:11.945Z,101038.78
2022-12-13T04:16:41.432Z,101031.84
2022-12-13T04:19:13.503Z,101031.94
2022-12-13T04:21:42.968Z,101025.31
2022-12-13T04:24:12.531Z,101010.34
2022-12-13T04:26:41.984Z,101021.56
2022-12-13T04:29:11.464Z,101011.91
2022-12-13T04:31:40.971Z,101013.53
2022-12-13T04:34:13.167Z,101011.75
2022-12-13T04:36:42.700Z,101010.50
2022-12-13T04:39:21.624Z,101003.09
2022-12-13T04:41:52.288Z,101002.00
2022-12-13T04:44:29.019Z,100991.75
2022-12-13T04:47:01.143Z,100994.09
2022-12-13T04:49:33.624Z,100986.97
2022-12-13T04:52:03.824Z,100983.84
2022-12-13T04:54:35.567Z,100977.03
2022-12-13T04:57:07.712Z,100976.72
2022-12-13T04:59:37.388Z,100973.13
2022-12-13T05:02:08.027Z,100976.38
2022-12-13T05:04:40.287Z,100970.91
2022-12-13T05:07:09.800Z,100968.34
2022-12-13T05:09:39.301Z,100964.78
2022-12-13T05:12:22.718Z,100963.00
2022-12-13T05:14:53.055Z,100963.97
2022-12-13T05:17:22.574Z,100949.25
2022-12-13T05:19:54.653Z,100956.25
2022-12-13T05:22:24.213Z,100949.44
2022-12-13T05:24:53.688Z,100949.97
2022-12-13T05:27:25.780Z,100944.53
2022-12-13T05:30:03.067Z,100949.00
2022-12-13T05:32:43.306Z,100935.88
2022-12-13T05:35:21.866Z,100944.31
2022-12-13T05:37:53.461Z,100937.25
2022-12-13T05:40:23.918Z,100936.34
2022-12-13T05:43:01.539Z,100936.53
2022-12-13T05:45:32.008Z,100930.66
2022-12-13T05:48:02.248Z,100896.72
2022-12-13T05:50:34.357Z,100876.38
2022-12-13T05:53:03.763Z,100880.00
2022-12-13T05:55:33.208Z,100894.59
2022-12-13T05:58:02.867Z,100905.56
2022-12-13T06:00:32.469Z,100922.78
2022-12-13T06:03:02.844Z,100926.91
2022-12-13T06:05:34.978Z,100923.03
2022-12-13T06:08:04.655Z,100930.16
2022-12-13T06:11:10.634Z,100935.44
2022-12-13T06:13:42.490Z,100938.94
2022-12-13T06:16:23.078Z,100942.19
2022-12-13T06:19:01.217Z,100949.56
2022-12-13T06:21:41.200Z,100941.97
2022-12-13T06:24:16.751Z,100941.13
2022-12-13T06:26:46.457Z,100938.28
2022-12-13T06:29:24.567Z,100936.84
2022-12-13T06:32:01.672Z,100931.47
2022-12-13T06:34:33.514Z,100939.75
2022-12-13T06:37:06.965Z,100940.22
2022-12-13T06:39:36.773Z,100929.91
2022-12-13T06:42:08.026Z,100933.72
2022-12-13T06:44:38.096Z,100925.81
2022-12-13T06:47:11.588Z,100930.88
2022-12-13T06:49:43.995Z,100929.19
2022-12-13T06:52:16.973Z,100925.22
2022-12-13T06:54:46.900Z,100933.81
2022-12-13T06:57:16.480Z,100929.69
2022-12-13T06:59:45.993Z,100929.44
2022-12-13T07:02:25.816Z,100928.22
2022-12-13T07:04:56.875Z,100929.84
2022-12-13T07:07:29.748Z,100935.19
2022-12-13T07:10:00.032Z,100928.72
2022-12-13T07:12:29.562Z,100929.69
2022-12-13T07:14:59.110Z,100923.16
2022-12-13T07:17:32.367Z,100928.16
2022-12-13T07:20:04.819Z,100920.91
2022-12-13T07:22:40.096Z,100920.25
2022-12-13T07:25:28.418Z,100915.56
2022-12-13T07:28:03.211Z,100919.13
2022-12-13T07:30:34.067Z,100915.13
2022-12-13T07:33:10.273Z,100913.94
2022-12-13T07:35:39.718Z,100909.72
2022-12-13T07:38:12.760Z,100909.44
2022-12-13T07:40:44.366Z,100913.59
2022-12-13T07:43:16.140Z,100912.53
2022-12-13T07:45:46.420Z,100913.59
2022-12-13T07:48:15.890Z,100915.38
2022-12-13T07:50:45.776Z,100905.50
2022-12-13T07:53:26.902Z,100915.59
2022-12-13T07:55:56.377Z,100924.16
2022-12-13T07:58:25.943Z,100924.66
2022-12-13T08:00:55.363Z,100919.78
2022-12-13T08:03:26.456Z,100920.34
2022-12-13T08:06:02.283Z,100908.19
2022-12-13T08:08:35.148Z,100911.13
2022-12-13T08:11:04.992Z,100907.38
2022-12-13T08:13:34.603Z,100902.66
2022-12-13T08:16:27.290Z,100905.06
2022-12-13T08:19:01.782Z,100909.53
2022-12-13T08:21:58.423Z,100911.41
2022-12-13T08:24:30.944Z,100908.66
2022-12-13T08:27:03.366Z,100904.09
2022-12-13T08:29:35.795Z,100899.22
2022-12-13T08:32:06.506Z,100905.13
2022-12-13T08:34:36.023Z,100900.66
2022-12-13T08:37:05.510Z,100899.22
2022-12-13T08:39:39.121Z,100891.31
2022-12-13T08:42:15.989Z,100877.69
2022-12-13T08:44:48.540Z,100883.53
2022-12-13T08:47:22.531Z,100885.66
2022-12-13T08:50:02.217Z,100880.94
2022-12-13T08:52:39.354Z,100880.59
2022-12-13T08:55:13.533Z,100891.72
2022-12-13T08:57:44.221Z,100878.78
2022-12-13T09:00:15.451Z,100876.00
2022-12-13T09:02:45.285Z,100878.09
2022-12-13T09:05:33.950Z,100866.06
2022-12-13T09:08:23.476Z,100870.91
2022-12-13T09:11:11.388Z,100883.75
2022-12-13T09:13:54.076Z,100882.88
2022-12-13T09:16:36.187Z,100874.53
2022-12-13T09:19:25.950Z,100875.44
2022-12-13T09:22:02.605Z,100878.97
2022-12-13T09:24:36.189Z,100895.28
2022-12-13T09:27:10.432Z,100904.88
2022-12-13T09:29:57.005Z,100900.94
2022-12-13T09:32:27.620Z,100895.31
2022-12-13T09:34:57.089Z,100902.78
2022-12-13T09:37:27.604Z,100897.44
2022-12-13T09:39:57.155Z,100898.59
2022-12-13T09:42:33.442Z,100903.06
2022-12-13T09:45:04.736Z,100890.03
2022-12-13T09:47:37.140Z,100886.19
2022-12-13T09:50:14.816Z,100886.75
2022-12-13T09:52:46.456Z,100893.00
2022-12-13T09:55:24.220Z,100890.38
2022-12-13T09:57:56.310Z,100886.53
2022-12-13T10:00:28.867Z,100882.69
2022-12-13T10:03:00.204Z,100886.84
2022-12-13T10:05:34.482Z,100885.69
2022-12-13T10:08:09.677Z,100891.78
2022-12-13T10:10:39.401Z,100891.31
2022-12-13T10:13:19.726Z,100898.44
2022-12-13T10:15:53.104Z,100900.22
2022-12-13T10:18:29.657Z,100894.00
2022-12-13T10:20:59.296Z,100899.78
2022-12-13T10:23:42.644Z,100899.47
2022-12-13T10:26:24.216Z,100902.00
2022-12-13T10:29:04.401Z,100904.41
2022-12-13T10:31:42.346Z,100903.81
2022-12-13T10:34:23.335Z,100904.28
2022-12-13T10:36:53.642Z,100900.84
2022-12-13T10:39:40.166Z,100900.53
2022-12-13T10:42:23.432Z,100904.09
2022-12-13T10:45:13.009Z,100902.63
2022-12-13T10:47:45.204Z,100907.09
2022-12-13T10:50:27.218Z,100908.13
2022-12-13T10:52:57.507Z,100905.91
2022-12-13T10:55:30.076Z,100899.94
2022-12-13T10:58:01.116Z,100894.88
2022-12-13T11:00:40.429Z,100888.91
2022-12-13T11:03:10.988Z,100896.47
2022-12-13T11:05:40.914Z,100896.06
2022-12-13T11:08:26.690Z,100899.94
2022-12-13T11:11:01.466Z,100890.44
2022-12-13T11:13:36.954Z,100897.25
2022-12-13T11:16:21.325Z,100901.41
2022-12-13T11:18:53.878Z,100898.09
2022-12-13T11:21:27.566Z,100897.81
2022-12-13T11:24:01.986Z,100907.94
2022-12-13T11:26:32.433Z,100911.69
2022-12-13T11:29:20.062Z,100912.84
2022-12-13T11:31:58.197Z,100915.66
2022-12-13T11:34:35.243Z,100917.63
2022-12-13T11:37:10.165Z,100916.84
2022-12-13T11:39:40.967Z,100921.91
2022-12-13T11:42:24.139Z,100930.97
2022-12-13T11:45:00.717Z,100929.31
2022-12-13T11:47:46.565Z,100923.91
2022-12-13T11:50:33.545Z,100914.88
2022-12-13T11:53:20.551Z,100925.66
2022-12-13T11:55:53.659Z,100926.84
2022-12-13T12:01:20.847Z,100927.69
2022-12-13T12:03:55.364Z,100939.97
2022-12-13T12:06:26.370Z,100945.94
2022-12-13T12:08:59.492Z,100945.63
2022-12-13T12:11:32.835Z,100948.28
2022-12-13T12:14:06.152Z,100951.91
2022-12-13T12:16:40.427Z,100948.59
2022-12-13T12:19:15.527Z,100955.09
2022-12-13T12:22:13.839Z,100947.97
2022-12-13T12:24:53.288Z,100962.56
2022-12-13T12:27:29.768Z,100965.22
2022-12-13T12:30:07.412Z,100957.47
2022-12-13T12:32:41.902Z,100961.03
2022-12-13T12:35:25.116Z,100962.72
2022-12-13T12:37:56.598Z,100954.50
2022-12-13T12:41:14.168Z,100968.19
2022-12-13T12:43:34.730Z,100972.28
2022-12-13T12:46:17.301Z,100967.16
2022-12-13T12:49:21.009Z,100968.25
2022-12-13T12:51:57.670Z,100965.16
2022-12-13T12:54:40.391Z,100959.03
2022-12-13T12:57:17.187Z,100961.13
2022-12-13T12:59:58.219Z,100964.50
2022-12-13T13:02:35.807Z,100969.75
2022-12-13T13:05:14.197Z,100967.25
2022-12-13T13:07:51.243Z,100958.75
2022-12-13T13:10:26.964Z,100967.00
2022-12-13T13:13:12.913Z,100961.97
2022-12-13T13:15:58.597Z,100960.72
2022-12-13T13:18:52.245Z,100965.22
2022-12-13T13:21:47.984Z,100965.53
2022-12-13T13:24:22.360Z,100953.53
2022-12-13T13:26:53.746Z,100952.34
2022-12-13T13:29:35.498Z,100955.78
2022-12-13T13:32:07.924Z,100967.84
2022-12-13T13:34:39.492Z,100960.44
2022-12-13T13:37:29.972Z,100952.19
2022-12-13T13:40:03.542Z,100945.22
2022-12-13T13:42:33.821Z,100960.13
2022-12-13T13:45:25.216Z,100949.72
2022-12-13T13:48:21.828Z,100955.09
2022-12-13T13:51:17.146Z,100946.13
2022-12-13T13:54:11.207Z,100943.75
2022-12-13T13:57:10.796Z,100945.22
2022-12-13T14:00:10.367Z,100935.34
2022-12-13T14:03:32.382Z,100937.78
2022-12-13T14:06:34.471Z,100931.94
2022-12-13T14:09:16.839Z,100922.84
2022-12-13T14:12:28.483Z,100929.44
2022-12-13T14:15:21.753Z,100932.97
2022-12-13T14:18:24.195Z,100931.41
2022-12-13T14:21:03.260Z,100927.81
2022-12-13T14:23:42.140Z,100924.84
2022-12-13T14:26:24.722Z,100917.84
2022-12-13T14:28:56.439Z,100919.94
2022-12-13T14:31:27.943Z,100916.66
2022-12-13T14:33:59.091Z,100916.59
2022-12-13T14:36:32.374Z,100910.81
2022-12-13T14:39:03.109Z,100914.09
2022-12-13T14:41:35.467Z,100912.47
2022-12-13T14:44:17.342Z,100915.44
2022-12-13T14:46:58.053Z,100908.28
2022-12-13T14:49:30.133Z,100907.09
2022-12-13T14:52:03.711Z,100900.41
2022-12-13T14:54:40.867Z,100894.63
2022-12-13T14:57:20.611Z,100889.28
2022-12-13T14:59:51.017Z,100888.94
2022-12-13T15:02:31.312Z,100890.13
2022-12-13T15:05:02.334Z,100878.13
2022-12-13T15:07:35.757Z,100873.63
2022-12-13T15:10:08.404Z,100879.88
2022-12-13T15:12:44.375Z,100870.59
2022-12-13T15:15:24.635Z,100868.00
2022-12-13T15:18:07.679Z,100873.69
2022-12-13T15:20:41.921Z,100868.81
2022-12-13T15:23:15.736Z,100854.97
2022-12-13T15:25:45.812Z,100866.59
2022-12-13T15:28:21.895Z,100862.13
2022-12-13T15:30:52.093Z,100866.31
2022-12-13T15:33:30.691Z,100859.19
2022-12-13T15:36:09.284Z,100869.03
2022-12-13T15:38:40.200Z,100866.19
2022-12-13T15:41:09.784Z,100870.81
2022-12-13T15:43:48.992Z,100862.47
2022-12-13T15:46:26.932Z,100855.22
2022-12-13T15:48:57.898Z,100859.25
2022-12-13T15:51:28.866Z,100843.50
2022-12-13T15:54:06.044Z,100847.22
2022-12-13T15:56:37.188Z,100840.06
2022-12-13T15:59:26.469Z,100838.13
2022-12-13T16:01:58.478Z,100827.44
2022-12-13T16:04:31.155Z,100821.66
2022-12-13T16:07:00.635Z,100810.06
2022-12-13T16:09:32.164Z,100806.22
2022-12-13T16:12:03.644Z,100797.28
2022-12-13T16:14:49.734Z,100806.50
2022-12-13T16:17:24.985Z,100798.19
2022-12-13T16:19:55.187Z,100794.16
2022-12-13T16:22:24.905Z,100791.78
2022-12-13T16:24:56.498Z,100799.22
2022-12-13T16:27:25.961Z,100793.56
2022-12-13T16:29:57.998Z,100791.47
2022-12-13T16:32:27.550Z,100788.19
2022-12-13T16:34:56.936Z,100788.78
2022-12-13T16:37:27.601Z,100795.16
2022-12-13T16:39:57.318Z,100783.13
2022-12-13T16:42:27.414Z,100778.69
2022-12-13T16:45:18.117Z,100772.47
2022-12-13T16:47:49.967Z,100769.47
2022-12-13T16:50:21.651Z,100758.03
2022-12-13T16:52:51.529Z,100745.56
2022-12-13T16:55:21.202Z,100753.13
2022-12-13T16:58:01.378Z,100749.88
2022-12-13T17:00:33.751Z,100738.28
2022-12-13T17:03:03.562Z,100734.41
2022-12-13T17:05:34.319Z,100737.97
2022-12-13T17:08:03.823Z,100725.78
2022-12-13T17:10:33.614Z,100715.09
2022-12-13T17:13:03.079Z,100711.97
2022-12-13T17:15:35.071Z,100702.00
2022-12-13T17:18:05.067Z,100690.13
2022-12-13T17:20:34.598Z,100678.84
2022-12-13T17:23:05.212Z,100680.19
2022-12-13T17:25:35.149Z,100674.66
2022-12-13T17:28:04.656Z,100666.69
2022-12-13T17:30:37.179Z,100659.25
2022-12-13T17:33:08.664Z,100645.47
2022-12-13T17:35:38.136Z,100647.34
2022-12-13T17:38:07.947Z,100638.47
2022-12-13T17:40:38.356Z,100637.00
2022-12-13T17:43:08.324Z,100627.53
2022-12-13T17:45:43.868Z,100624.28
2022-12-13T17:48:13.678Z,100628.69
2022-12-13T17:50:43.207Z,100616.44
2022-12-13T17:53:12.688Z,100611.06
2022-12-13T17:55:42.343Z,100607.06
2022-12-13T17:58:11.747Z,100597.47
2022-12-13T18:00:43.817Z,100601.56
2022-12-13T18:03:13.345Z,100604.38
2022-12-13T18:05:42.808Z,100605.84
2022-12-13T18:08:12.330Z,100612.69
2022-12-13T18:10:41.790Z,100606.91
2022-12-13T18:13:11.243Z,100601.53
2022-12-13T18:15:43.244Z,100602.91
2022-12-13T18:18:12.864Z,100605.84
2022-12-13T18:20:42.561Z,100601.13
2022-12-13T18:23:12.106Z,100599.34
2022-12-13T18:25:42.033Z,100599.78
2022-12-13T18:28:12.652Z,100600.09
2022-12-13T18:30:44.724Z,100600.09
2022-12-13T18:33:15.171Z,100592.53
2022-12-13T18:35:44.709Z,100589.13
2022-12-13T18:38:14.176Z,100588.94
2022-12-13T18:40:46.321Z,100592.22
2022-12-13T18:43:15.910Z,100590.44
2022-12-13T18:45:49.005Z,100595.03
2022-12-13T18:48:18.744Z,100594.41
2022-12-13T18:50:48.957Z,100588.78
2022-12-13T18:53:18.586Z,100592.50
2022-12-13T18:55:48.037Z,100586.09
2022-12-13T18:58:17.492Z,100584.19
2022-12-13T19:00:50.550Z,100588.31
2022-12-13T19:03:20.083Z,100587.72
2022-12-13T19:05:49.666Z,100590.38
2022-12-13T19:08:19.202Z,100592.44
2022-12-13T19:10:48.897Z,100597.13
2022-12-13T19:13:18.414Z,100604.22
2022-12-13T19:15:50.542Z,100607.81
2022-12-13T19:18:20.071Z,100602.78
2022-12-13T19:20:49.968Z,100603.94
2022-12-13T19:23:19.714Z,100605.13
2022-12-13T19:25:49.752Z,100617.56
2022-12-13T19:28:19.946Z,100616.66
2022-12-13T19:30:52.130Z,100619.78
2022-12-13T19:33:21.609Z,100619.44
2022-12-13T19:35:51.395Z,100625.84
2022-12-13T19:38:20.948Z,100613.44
2022-12-13T19:40:50.409Z,100610.84
2022-12-13T19:43:21.027Z,100617.41
2022-12-13T19:45:53.048Z,100612.56
2022-12-13T19:48:22.628Z,100611.31
2022-12-13T19:50:52.194Z,100615.28
2022-12-13T19:53:21.638Z,100616.03
2022-12-13T19:55:51.068Z,100612.81
2022-12-13T19:58:20.599Z,100614.13
2022-12-13T20:00:50.116Z,100609.41
2022-12-13T20:03:23.437Z,100618.25
2022-12-13T20:05:59.927Z,100618.81
2022-12-13T20:08:29.864Z,100602.28
2022-12-13T20:11:00.877Z,100597.22
2022-12-13T20:13:30.754Z,100596.22
2022-12-13T20:16:00.589Z,100601.13
2022-12-13T20:18:32.685Z,100615.78
2022-12-13T20:21:13.701Z,100617.53
2022-12-13T20:23:49.751Z,100630.88
2022-12-13T20:26:22.259Z,100633.94
2022-12-13T20:28:52.345Z,100638.13
2022-12-13T20:31:23.635Z,100640.25
2022-12-13T20:33:59.908Z,100644.59
2022-12-13T20:36:30.654Z,100642.97
2022-12-13T20:39:01.946Z,100646.38
2022-12-13T20:41:33.284Z,100640.31
2022-12-13T20:44:04.091Z,100641.56
2022-12-13T20:46:34.484Z,100643.06
2022-12-13T20:49:08.701Z,100644.22
2022-12-13T20:51:39.463Z,100642.28
2022-12-13T20:54:09.257Z,100633.81
2022-12-13T20:56:40.190Z,100631.25
2022-12-13T20:59:12.682Z,100631.75
2022-12-13T21:01:43.341Z,100632.88
2022-12-13T21:04:15.453Z,100622.16
2022-12-13T21:06:45.179Z,100621.81
2022-12-13T21:09:14.732Z,100615.72
2022-12-13T21:11:45.564Z,100612.41
2022-12-13T21:14:21.362Z,100611.84
2022-12-13T21:16:53.764Z,100615.06
2022-12-13T21:19:27.469Z,100617.31
2022-12-13T21:21:58.190Z,100617.34
2022-12-13T21:24:29.394Z,100615.69
2022-12-13T21:26:59.933Z,100615.44
2022-12-13T21:29:29.431Z,100609.06
2022-12-13T21:31:58.912Z,100600.66
2022-12-13T21:34:31.223Z,100611.09
2022-12-13T21:37:00.648Z,100607.81
2022-12-13T21:39:30.986Z,100612.00
2022-12-13T21:42:00.777Z,100607.31
2022-12-13T21:44:30.184Z,100611.44
2022-12-13T21:47:15.092Z,100612.94
2022-12-13T21:49:48.432Z,100611.22
2022-12-13T21:52:18.511Z,100607.06
2022-12-13T21:54:47.986Z,100608.94
2022-12-13T21:57:29.918Z,100605.50
2022-12-13T21:59:59.405Z,100608.78
2022-12-13T22:02:29.017Z,100602.28
2022-12-13T22:05:01.824Z,100599.03
2022-12-13T22:07:32.722Z,100601.66
2022-12-13T22:10:03.940Z,100607.25
2022-12-13T22:12:36.168Z,100598.13
2022-12-13T22:15:07.337Z,100600.81
2022-12-13T22:17:36.826Z,100592.94
2022-12-13T22:20:11.535Z,100592.53
2022-12-13T22:22:41.570Z,100591.38
2022-12-13T22:25:11.902Z,100588.91
2022-12-13T22:27:41.347Z,100581.50
2022-12-13T22:30:12.161Z,100586.13
2022-12-13T22:32:42.355Z,100588.00
2022-12-13T22:35:14.653Z,100585.50
2022-12-13T22:37:44.079Z,100596.31
2022-12-13T22:40:18.328Z,100600.53
2022-12-13T22:42:48.373Z,100607.38
2022-12-13T22:45:18.182Z,100601.00
2022-12-13T22:47:47.655Z,100592.91
2022-12-13T22:50:20.832Z,100592.97
2022-12-13T22:52:50.296Z,100594.44
2022-12-13T22:55:19.852Z,100594.28
2022-12-13T22:57:49.295Z,100593.53
2022-12-13T23:00:19.193Z,100591.66
2022-12-13T23:02:48.787Z,100591.63
2022-12-13T23:05:20.885Z,100580.41
2022-12-13T23:07:50.399Z,100583.06
2022-12-13T23:10:32.441Z,100579.94
2022-12-13T23:13:04.568Z,100585.53
2022-12-13T23:15:34.045Z,100585.06
2022-12-13T23:18:03.539Z,100571.50
2022-12-13T23:20:36.219Z,100571.53
2022-12-13T23:23:05.829Z,100566.34
2022-12-13T23:25:35.682Z,100566.75
2022-12-13T23:28:05.343Z,100570.00
2022-12-13T23:30:34.762Z,100562.13
2022-12-13T23:33:04.328Z,100575.63
2022-12-13T23:35:36.379Z,100560.56
2022-12-13T23:38:05.859Z,100577.41
2022-12-13T23:40:35.371Z,100566.16
2022-12-13T23:43:04.876Z,100567.06
2022-12-13T23:45:34.411Z,100571.19
2022-12-13T23:48:03.884Z,100559.25
2022-12-13T23:50:35.885Z,100557.06
2022-12-13T23:53:05.393Z,100553.25
2022-12-13T23:55:38.959Z,100553.41
2022-12-13T23:58:09.049Z,100548.28
